createdAt,value
2022-10-13T00:02:47.720Z,14.43
2022-10-13T00:05:50.837Z,11.23
2022-10-13T00:08:53.312Z,16.30
2022-10-13T00:11:57.878Z,11.77
2022-10-13T00:14:59.583Z,10.30
2022-10-13T00:18:01.331Z,12.88
2022-10-13T00:21:07.988Z,8.30
2022-10-13T00:24:11.462Z,12.52
2022-10-13T00:27:13.154Z,12.35
2022-10-13T00:30:15.070Z,14.07
2022-10-13T00:33:16.875Z,10.15
2022-10-13T00:36:20.052Z,11.10
2022-10-13T00:39:21.731Z,13.50
2022-10-13T00:42:26.190Z,12.82
2022-10-13T00:45:29.679Z,12.95
2022-10-13T00:48:31.566Z,11.48
2022-10-13T00:51:38.173Z,11.77
2022-10-13T00:57:44.520Z,12.05
2022-10-13T01:00:49.708Z,12.60
2022-10-13T01:03:52.714Z,9.95
2022-10-13T01:06:56.606Z,12.27
2022-10-13T01:10:01.029Z,10.70
2022-10-13T01:13:23.484Z,11.45
2022-10-13T01:16:41.140Z,10.77
2022-10-13T01:20:01.494Z,9.82
2022-10-13T01:23:31.221Z,11.68
2022-10-13T01:27:01.082Z,12.05
2022-10-13T01:30:12.935Z,14.80
2022-10-13T01:33:43.142Z,12.85
2022-10-13T01:37:10.191Z,14.00
2022-10-13T01:40:29.068Z,10.98
2022-10-13T01:43:37.444Z,14.75
2022-10-13T01:46:39.701Z,12.50
2022-10-13T01:49:43.327Z,13.43
2022-10-13T01:52:46.633Z,10.88
2022-10-13T01:55:50.412Z,14.95
2022-10-13T01:58:55.571Z,12.32
2022-10-13T02:02:13.097Z,11.00
2022-10-13T02:05:49.548Z,11.48
2022-10-13T02:09:05.104Z,11.68
2022-10-13T02:12:12.233Z,8.20
2022-10-13T02:15:18.253Z,12.35
2022-10-13T02:18:23.940Z,11.80
2022-10-13T02:21:26.521Z,9.95
2022-10-13T02:24:29.848Z,11.52
2022-10-13T02:27:31.739Z,17.05
2022-10-13T02:30:34.016Z,13.75
2022-10-13T02:33:35.781Z,9.10
2022-10-13T02:36:38.493Z,13.57
2022-10-13T02:39:40.267Z,10.73
2022-10-13T02:42:46.221Z,15.93
2022-10-13T02:45:47.907Z,11.35
2022-10-13T02:48:49.648Z,9.35
2022-10-13T02:51:51.459Z,15.65
2022-10-13T02:54:53.256Z,12.57
2022-10-13T02:57:54.943Z,11.25
2022-10-13T03:01:08.885Z,10.43
2022-10-13T03:04:11.573Z,10.20
2022-10-13T03:07:13.451Z,11.23
2022-10-13T03:10:15.444Z,12.90
2022-10-13T03:13:17.144Z,13.35
2022-10-13T03:16:18.993Z,11.45
2022-10-13T03:19:20.879Z,12.00
2022-10-13T03:22:22.971Z,12.95
2022-10-13T03:25:29.045Z,10.93
2022-10-13T03:28:32.150Z,12.18
2022-10-13T03:31:34.091Z,11.70
2022-10-13T03:34:36.854Z,8.25
2022-10-13T03:37:38.759Z,10.07
2022-10-13T03:40:40.532Z,10.00
2022-10-13T03:43:43.368Z,9.68
2022-10-13T03:46:45.197Z,13.05
2022-10-13T03:49:47.073Z,8.70
2022-10-13T03:52:48.816Z,12.25
2022-10-13T03:55:52.043Z,10.75
2022-10-13T03:58:59.776Z,12.05
2022-10-13T04:02:01.531Z,14.48
2022-10-13T04:05:03.471Z,12.00
2022-10-13T04:08:05.693Z,12.50
2022-10-13T04:11:09.453Z,9.20
2022-10-13T04:14:13.239Z,13.17
2022-10-13T04:17:14.939Z,11.85
2022-10-13T04:20:16.931Z,12.00
2022-10-13T04:23:18.717Z,10.95
2022-10-13T04:26:24.009Z,11.38
2022-10-13T04:29:25.920Z,11.90
2022-10-13T04:32:28.457Z,8.98
2022-10-13T04:35:30.426Z,9.00
2022-10-13T04:38:32.390Z,16.60
2022-10-13T04:41:34.104Z,11.68
2022-10-13T04:44:35.781Z,12.93
2022-10-13T04:47:39.681Z,12.93
2022-10-13T04:50:41.459Z,12.00
2022-10-13T04:53:43.340Z,14.60
2022-10-13T04:56:47.135Z,10.77
2022-10-13T04:59:48.938Z,16.63
2022-10-13T05:02:50.698Z,9.85
2022-10-13T05:05:53.255Z,9.00
2022-10-13T05:08:55.922Z,12.10
2022-10-13T05:11:57.733Z,12.70
2022-10-13T05:14:59.810Z,14.43
2022-10-13T05:18:01.534Z,14.27
2022-10-13T05:21:11.866Z,11.13
2022-10-13T05:24:15.723Z,12.45
2022-10-13T05:27:18.452Z,11.50
2022-10-13T05:30:20.395Z,11.68
2022-10-13T05:33:22.154Z,18.73
2022-10-13T05:36:33.675Z,13.32
2022-10-13T05:39:35.859Z,10.90
2022-10-13T05:42:37.651Z,13.13
2022-10-13T05:45:40.194Z,13.27
2022-10-13T05:48:41.927Z,20.70
2022-10-13T05:51:50.595Z,11.07
2022-10-13T05:54:56.776Z,15.70
2022-10-13T06:01:00.573Z,14.95
2022-10-13T06:04:06.769Z,20.90
2022-10-13T06:07:09.940Z,11.43
2022-10-13T06:10:12.755Z,20.40
2022-10-13T06:13:14.466Z,16.95
2022-10-13T06:16:16.143Z,12.70
2022-10-13T06:19:18.032Z,21.73
2022-10-13T06:22:19.911Z,22.65
2022-10-13T06:25:22.200Z,15.10
2022-10-13T06:28:23.913Z,24.38
2022-10-13T06:31:25.873Z,15.35
2022-10-13T06:34:27.777Z,21.60
2022-10-13T06:37:29.535Z,17.17
2022-10-13T06:40:31.306Z,13.57
2022-10-13T06:43:39.956Z,20.60
2022-10-13T06:46:45.055Z,14.85
2022-10-13T06:49:46.771Z,18.80
2022-10-13T06:52:49.579Z,16.77
2022-10-13T06:55:52.636Z,11.38
2022-10-13T06:58:54.505Z,23.42
2022-10-13T07:01:56.283Z,21.23
2022-10-13T07:04:58.347Z,19.58
2022-10-13T07:08:00.043Z,29.50
2022-10-13T07:11:15.364Z,21.30
2022-10-13T07:14:17.728Z,17.77
2022-10-13T07:17:19.574Z,22.50
2022-10-13T07:20:23.118Z,27.75
2022-10-13T07:23:25.528Z,23.45
2022-10-13T07:26:27.350Z,15.35
2022-10-13T07:29:29.006Z,26.45
2022-10-13T07:32:32.150Z,24.77
2022-10-13T07:35:34.874Z,23.35
2022-10-13T07:38:37.447Z,26.25
2022-10-13T07:41:39.236Z,31.10
2022-10-13T07:44:41.086Z,22.85
2022-10-13T07:47:42.780Z,18.58
2022-10-13T07:50:44.666Z,28.35
2022-10-13T07:53:46.877Z,28.08
2022-10-13T07:56:52.530Z,23.40
2022-10-13T07:59:54.414Z,26.80
2022-10-13T08:02:56.344Z,27.58
2022-10-13T08:06:03.566Z,24.02
2022-10-13T08:09:05.440Z,29.35
2022-10-13T08:12:07.204Z,20.25
2022-10-13T08:15:09.753Z,23.67
2022-10-13T08:18:13.061Z,29.73
2022-10-13T08:21:52.849Z,27.40
2022-10-13T08:24:39.450Z,28.45
2022-10-13T08:27:51.035Z,23.58
2022-10-13T08:30:54.261Z,34.10
2022-10-13T08:33:56.155Z,30.67
2022-10-13T08:36:59.717Z,33.10
2022-10-13T08:40:01.499Z,23.50
2022-10-13T08:43:10.628Z,27.75
2022-10-13T08:47:15.932Z,22.63
2022-10-13T08:50:27.207Z,26.70
2022-10-13T08:53:33.297Z,25.15
2022-10-13T08:56:35.701Z,24.02
2022-10-13T08:59:37.485Z,30.20
2022-10-13T09:02:40.061Z,29.98
2022-10-13T09:05:58.333Z,22.60
2022-10-13T09:09:02.952Z,34.40
2022-10-13T09:12:05.552Z,23.83
2022-10-13T09:15:11.197Z,30.67
2022-10-13T09:18:14.183Z,25.37
2022-10-13T09:21:20.701Z,25.75
2022-10-13T09:24:25.922Z,22.25
2022-10-13T09:27:27.649Z,26.92
2022-10-13T09:30:42.072Z,24.77
2022-10-13T09:33:44.311Z,24.17
2022-10-13T09:36:56.848Z,30.15
2022-10-13T09:40:20.071Z,27.83
2022-10-13T09:43:31.291Z,27.00
2022-10-13T09:46:36.419Z,20.38
2022-10-13T09:49:44.861Z,25.90
2022-10-13T09:52:48.064Z,24.15
2022-10-13T09:55:50.228Z,27.33
2022-10-13T09:59:24.148Z,29.02
2022-10-13T10:02:40.913Z,23.88
2022-10-13T10:06:11.682Z,24.55
2022-10-13T10:09:27.635Z,28.13
2022-10-13T10:12:32.353Z,28.30
2022-10-13T10:16:06.479Z,22.75
2022-10-13T10:19:32.148Z,24.50
2022-10-13T10:22:52.523Z,23.13
2022-10-13T10:25:59.609Z,24.50
2022-10-13T10:29:17.745Z,25.13
2022-10-13T10:32:40.836Z,17.25
2022-10-13T10:35:56.250Z,28.58
2022-10-13T10:39:08.313Z,19.83
2022-10-13T10:42:34.135Z,24.13
2022-10-13T10:45:39.503Z,22.70
2022-10-13T10:48:44.352Z,28.15
2022-10-13T10:51:46.858Z,27.77
2022-10-13T10:55:04.545Z,25.60
2022-10-13T10:58:19.872Z,23.98
2022-10-13T11:01:27.518Z,31.30
2022-10-13T11:04:35.982Z,27.27
2022-10-13T11:07:43.727Z,29.23
2022-10-13T11:10:45.394Z,28.23
2022-10-13T11:13:56.383Z,31.50
2022-10-13T11:16:58.011Z,4.97
2022-10-13T11:20:00.395Z,11.68
2022-10-13T11:23:05.148Z,30.15
2022-10-13T11:26:32.131Z,24.60
2022-10-13T11:29:46.652Z,28.05
2022-10-13T11:32:55.729Z,31.60
2022-10-13T11:35:57.435Z,28.67
2022-10-13T11:42:50.157Z,27.17
2022-10-13T11:46:14.583Z,31.95
2022-10-13T11:49:38.939Z,30.02
2022-10-13T11:53:14.831Z,33.08
2022-10-13T11:56:33.921Z,30.63
2022-10-13T11:59:37.719Z,31.48
2022-10-13T12:02:48.233Z,32.33
2022-10-13T12:05:52.384Z,32.92
2022-10-13T12:08:54.197Z,34.78
2022-10-13T12:12:15.103Z,38.03
2022-10-13T12:15:34.106Z,38.97
2022-10-13T12:18:39.147Z,29.10
2022-10-13T12:22:13.630Z,35.80
2022-10-13T12:25:19.582Z,35.30
2022-10-13T12:28:21.452Z,36.85
2022-10-13T12:31:27.592Z,39.17
2022-10-13T12:34:33.247Z,33.45
2022-10-13T12:37:36.841Z,29.00
2022-10-13T12:40:39.159Z,4.15
2022-10-13T12:43:42.545Z,37.47
2022-10-13T12:46:46.970Z,45.45
2022-10-13T12:49:48.713Z,33.78
2022-10-13T12:53:25.657Z,44.90
2022-10-13T12:56:31.985Z,35.00
2022-10-13T13:02:36.423Z,42.90
2022-10-13T13:05:51.677Z,37.30
2022-10-13T13:09:22.861Z,34.92
2022-10-13T13:12:28.647Z,28.15
2022-10-13T13:15:34.277Z,39.00
2022-10-13T13:18:42.262Z,36.80
2022-10-13T13:21:43.944Z,17.63
2022-10-13T13:24:46.619Z,48.33
2022-10-13T13:27:48.842Z,12.63
2022-10-13T13:30:51.301Z,37.35
2022-10-13T13:33:53.175Z,30.02
2022-10-13T13:36:54.971Z,36.63
2022-10-13T13:39:57.555Z,5.68
2022-10-13T13:42:59.343Z,36.83
2022-10-13T13:46:07.635Z,27.33
2022-10-13T13:49:11.694Z,36.45
2022-10-13T13:52:13.390Z,35.58
2022-10-13T13:55:15.411Z,34.35
2022-10-13T13:58:17.168Z,31.00
2022-10-13T14:01:19.120Z,35.33
2022-10-13T14:04:20.807Z,39.30
2022-10-13T14:07:23.075Z,38.35
2022-10-13T14:10:26.573Z,39.53
2022-10-13T14:13:28.269Z,29.38
2022-10-13T14:16:30.108Z,38.05
2022-10-13T14:19:33.438Z,36.85
2022-10-13T14:22:38.122Z,39.60
2022-10-13T14:25:39.810Z,37.22
2022-10-13T14:28:42.682Z,34.88
2022-10-13T14:31:44.614Z,36.13
2022-10-13T14:34:46.355Z,33.00
2022-10-13T14:37:48.294Z,34.53
2022-10-13T14:40:51.921Z,34.63
2022-10-13T14:43:54.770Z,31.77
2022-10-13T14:46:56.612Z,31.70
2022-10-13T14:50:01.254Z,18.60
2022-10-13T14:53:03.067Z,34.28
2022-10-13T14:56:25.654Z,34.08
2022-10-13T14:59:27.653Z,29.80
2022-10-13T15:02:29.648Z,31.65
2022-10-13T15:05:31.375Z,27.77
2022-10-13T15:08:33.124Z,29.80
2022-10-13T15:11:35.107Z,38.28
2022-10-13T15:14:54.574Z,38.08
2022-10-13T15:17:56.348Z,25.42
2022-10-13T15:21:17.433Z,25.58
2022-10-13T15:24:19.180Z,29.33
2022-10-13T15:27:27.085Z,28.55
2022-10-13T15:30:28.999Z,27.00
2022-10-13T15:33:49.694Z,31.23
2022-10-13T15:36:51.373Z,33.88
2022-10-13T15:39:57.043Z,33.33
2022-10-13T15:43:02.241Z,27.20
2022-10-13T15:46:10.972Z,27.55
2022-10-13T15:49:12.817Z,27.75
2022-10-13T15:52:14.622Z,26.52
2022-10-13T15:55:16.460Z,29.45
2022-10-13T15:58:18.790Z,28.90
2022-10-13T16:01:20.593Z,39.53
2022-10-13T16:04:22.387Z,33.90
2022-10-13T16:07:24.560Z,29.35
2022-10-13T16:10:26.498Z,31.85
2022-10-13T16:13:28.265Z,24.98
2022-10-13T16:16:30.404Z,23.33
2022-10-13T16:19:32.077Z,33.50
2022-10-13T16:22:33.813Z,30.08
2022-10-13T16:25:39.243Z,24.00
2022-10-13T16:28:41.431Z,34.67
2022-10-13T16:31:43.329Z,30.42
2022-10-13T16:34:48.004Z,36.80
2022-10-13T16:37:53.566Z,29.77
2022-10-13T16:40:55.640Z,32.88
2022-10-13T16:43:57.710Z,35.47
2022-10-13T16:47:04.698Z,29.90
2022-10-13T16:50:09.683Z,43.58
2022-10-13T16:53:11.529Z,36.90
2022-10-13T16:56:14.419Z,38.80
2022-10-13T16:59:16.175Z,27.80
2022-10-13T17:02:18.058Z,43.70
2022-10-13T17:05:19.758Z,33.30
2022-10-13T17:08:21.559Z,44.47
2022-10-13T17:11:27.355Z,35.88
2022-10-13T17:14:29.066Z,40.72
2022-10-13T17:17:30.788Z,29.77
2022-10-13T17:20:32.620Z,32.28
2022-10-13T17:23:34.960Z,38.15
2022-10-13T17:26:36.840Z,28.50
2022-10-13T17:29:38.586Z,33.80
2022-10-13T17:32:40.555Z,31.80
2022-10-13T17:35:42.284Z,33.80
2022-10-13T17:38:44.678Z,34.55
2022-10-13T17:41:46.428Z,31.77
2022-10-13T17:44:49.413Z,34.10
2022-10-13T17:47:51.880Z,33.88
2022-10-13T17:51:02.283Z,31.77
2022-10-13T17:54:04.486Z,31.83
2022-10-13T17:57:06.210Z,32.70
2022-10-13T18:00:08.697Z,31.08
2022-10-13T18:03:15.998Z,34.95
2022-10-13T18:06:18.061Z,42.55
2022-10-13T18:09:23.254Z,32.38
2022-10-13T18:12:25.069Z,33.03
2022-10-13T18:15:26.993Z,38.33
2022-10-13T18:18:28.817Z,35.42
2022-10-13T18:21:30.679Z,32.80
2022-10-13T18:24:32.541Z,35.00
2022-10-13T18:27:34.294Z,27.17
2022-10-13T18:30:36.127Z,39.63
2022-10-13T18:33:38.385Z,40.28
2022-10-13T18:36:43.186Z,32.13
2022-10-13T18:39:45.076Z,35.63
2022-10-13T18:42:51.665Z,34.70
2022-10-13T18:46:00.134Z,31.80
2022-10-13T18:49:03.304Z,33.92
2022-10-13T18:52:05.248Z,35.95
2022-10-13T18:55:07.830Z,31.27
2022-10-13T18:58:10.199Z,39.95
2022-10-13T19:01:14.723Z,41.47
2022-10-13T19:04:17.095Z,32.53
2022-10-13T19:07:19.127Z,38.88
2022-10-13T19:10:21.202Z,28.95
2022-10-13T19:13:23.300Z,29.55
2022-10-13T19:16:27.961Z,35.55
2022-10-13T19:19:29.749Z,31.67
2022-10-13T19:22:32.550Z,38.50
2022-10-13T19:25:34.276Z,46.25
2022-10-13T19:28:36.184Z,39.92
2022-10-13T19:31:39.468Z,33.67
2022-10-13T19:34:44.061Z,30.27
2022-10-13T19:37:47.297Z,31.33
2022-10-13T19:40:49.775Z,33.17
2022-10-13T19:43:51.691Z,30.38
2022-10-13T19:46:53.929Z,36.45
2022-10-13T19:49:55.843Z,34.20
2022-10-13T19:52:57.674Z,26.08
2022-10-13T19:55:59.393Z,37.33
2022-10-13T19:59:02.309Z,38.33
2022-10-13T20:02:04.306Z,31.40
2022-10-13T20:05:06.512Z,41.13
2022-10-13T20:08:10.290Z,40.22
2022-10-13T20:11:17.212Z,31.38
2022-10-13T20:14:21.738Z,40.30
2022-10-13T20:17:23.681Z,38.35
2022-10-13T20:20:26.328Z,34.00
2022-10-13T20:23:28.022Z,38.75
2022-10-13T20:26:29.782Z,31.40
2022-10-13T20:29:31.647Z,32.85
2022-10-13T20:32:33.459Z,40.30
2022-10-13T20:35:35.222Z,31.42
2022-10-13T20:38:37.310Z,34.08
2022-10-13T20:41:39.113Z,32.70
2022-10-13T20:44:40.830Z,25.45
2022-10-13T20:47:42.638Z,38.83
2022-10-13T20:50:44.407Z,35.13
2022-10-13T20:53:47.048Z,31.75
2022-10-13T20:56:48.971Z,40.17
2022-10-13T20:59:50.674Z,30.73
2022-10-13T21:02:53.169Z,33.85
2022-10-13T21:05:55.852Z,38.05
2022-10-13T21:08:58.065Z,36.42
2022-10-13T21:12:00.212Z,39.17
2022-10-13T21:15:02.015Z,36.92
2022-10-13T21:18:04.452Z,35.35
2022-10-13T21:21:09.910Z,29.98
2022-10-13T21:24:11.845Z,30.02
2022-10-13T21:27:13.579Z,28.85
2022-10-13T21:30:15.306Z,29.85
2022-10-13T21:33:17.082Z,26.98
2022-10-13T21:36:24.798Z,29.20
2022-10-13T21:39:26.527Z,28.27
2022-10-13T21:42:34.485Z,29.45
2022-10-13T21:45:36.534Z,33.83
2022-10-13T21:48:38.613Z,31.45
2022-10-13T21:51:40.770Z,24.08
2022-10-13T21:54:42.475Z,27.50
2022-10-13T21:57:44.474Z,26.80
2022-10-13T22:00:46.271Z,37.72
2022-10-13T22:03:52.124Z,33.88
2022-10-13T22:09:59.774Z,30.80
2022-10-13T22:13:01.481Z,30.42
2022-10-13T22:16:12.564Z,33.10
2022-10-13T22:19:19.112Z,22.02
2022-10-13T22:22:20.820Z,29.90
2022-10-13T22:25:22.586Z,35.20
2022-10-13T22:28:36.772Z,26.02
2022-10-13T22:31:39.229Z,30.92
2022-10-13T22:34:44.318Z,25.88
2022-10-13T22:37:46.010Z,29.92
2022-10-13T22:40:47.773Z,25.77
2022-10-13T22:43:51.888Z,30.15
2022-10-13T22:46:53.564Z,38.55
2022-10-13T22:49:55.275Z,35.92
2022-10-13T22:52:57.116Z,34.33
2022-10-13T22:55:59.234Z,30.48
2022-10-13T22:59:06.769Z,34.25
2022-10-13T23:02:08.589Z,29.92
2022-10-13T23:05:11.105Z,29.55
2022-10-13T23:08:12.949Z,33.45
2022-10-13T23:11:17.830Z,30.35
2022-10-13T23:14:20.032Z,31.52
2022-10-13T23:17:22.006Z,30.00
2022-10-13T23:20:24.065Z,28.20
2022-10-13T23:23:25.905Z,26.80
2022-10-13T23:26:28.758Z,22.73
2022-10-13T23:29:30.478Z,25.75
2022-10-13T23:32:32.499Z,27.25
2022-10-13T23:35:34.178Z,32.92
2022-10-13T23:38:35.954Z,25.70
2022-10-13T23:41:38.748Z,23.63
2022-10-13T23:44:40.499Z,31.30
2022-10-13T23:47:42.256Z,24.90
2022-10-13T23:50:44.063Z,25.02
2022-10-13T23:53:46.555Z,27.02
2022-10-13T23:56:49.743Z,27.58
2022-10-13T23:59:51.484Z,25.17
